sensor_id;sensor_type;location;lat;lon;timestamp;P1;durP1;ratioP1;P2;durP2;ratioP2
21607;SDS011;10966;51.076;3.782;2022-07-29T00:00:35;3.40;;;2.17;;
21607;SDS011;10966;51.076;3.782;2022-07-29T00:03:01;6.45;;;2.40;;
21607;SDS011;10966;51.076;3.782;2022-07-29T00:05:27;4.97;;;2.30;;
21607;SDS011;10966;51.076;3.782;2022-07-29T00:07:53;6.82;;;2.40;;
21607;SDS011;10966;51.076;3.782;2022-07-29T00:10:18;4.65;;;2.53;;
21607;SDS011;10966;51.076;3.782;2022-07-29T00:12:44;5.20;;;2.53;;
21607;SDS011;10966;51.076;3.782;2022-07-29T00:15:10;6.38;;;2.67;;
21607;SDS011;10966;51.076;3.782;2022-07-29T00:17:35;6.28;;;2.80;;
21607;SDS011;10966;51.076;3.782;2022-07-29T00:20:01;5.50;;;2.85;;
21607;SDS011;10966;51.076;3.782;2022-07-29T00:22:27;5.43;;;2.83;;
21607;SDS011;10966;51.076;3.782;2022-07-29T00:24:53;7.00;;;3.13;;
21607;SDS011;10966;51.076;3.782;2022-07-29T00:27:19;8.50;;;2.70;;
21607;SDS011;10966;51.076;3.782;2022-07-29T00:29:44;5.55;;;2.72;;
21607;SDS011;10966;51.076;3.782;2022-07-29T00:32:10;7.32;;;2.70;;
21607;SDS011;10966;51.076;3.782;2022-07-29T00:34:36;6.18;;;2.78;;
21607;SDS011;10966;51.076;3.782;2022-07-29T00:37:20;4.68;;;2.97;;
21607;SDS011;10966;51.076;3.782;2022-07-29T00:39:46;5.28;;;2.65;;
21607;SDS011;10966;51.076;3.782;2022-07-29T00:42:11;7.43;;;2.85;;
21607;SDS011;10966;51.076;3.782;2022-07-29T00:44:38;6.78;;;3.05;;
21607;SDS011;10966;51.076;3.782;2022-07-29T00:47:05;6.95;;;2.90;;
21607;SDS011;10966;51.076;3.782;2022-07-29T00:49:32;8.10;;;3.00;;
21607;SDS011;10966;51.076;3.782;2022-07-29T00:52:00;5.22;;;2.80;;
21607;SDS011;10966;51.076;3.782;2022-07-29T00:54:29;7.75;;;2.92;;
21607;SDS011;10966;51.076;3.782;2022-07-29T00:56:56;6.88;;;3.05;;
21607;SDS011;10966;51.076;3.782;2022-07-29T00:59:23;5.82;;;2.90;;
21607;SDS011;10966;51.076;3.782;2022-07-29T01:01:49;5.90;;;3.13;;
21607;SDS011;10966;51.076;3.782;2022-07-29T01:04:15;8.05;;;2.85;;
21607;SDS011;10966;51.076;3.782;2022-07-29T01:06:41;4.88;;;3.13;;
21607;SDS011;10966;51.076;3.782;2022-07-29T01:09:07;10.27;;;3.03;;
21607;SDS011;10966;51.076;3.782;2022-07-29T01:11:34;6.25;;;2.90;;
21607;SDS011;10966;51.076;3.782;2022-07-29T01:14:01;6.25;;;2.38;;
21607;SDS011;10966;51.076;3.782;2022-07-29T01:16:30;4.18;;;2.90;;
21607;SDS011;10966;51.076;3.782;2022-07-29T01:19:00;8.43;;;3.10;;
21607;SDS011;10966;51.076;3.782;2022-07-29T01:21:51;4.65;;;2.78;;
21607;SDS011;10966;51.076;3.782;2022-07-29T01:26:59;6.78;;;3.17;;
21607;SDS011;10966;51.076;3.782;2022-07-29T01:37:39;7.28;;;2.72;;
21607;SDS011;10966;51.076;3.782;2022-07-29T01:40:29;4.85;;;2.75;;
21607;SDS011;10966;51.076;3.782;2022-07-29T01:43:17;4.78;;;2.72;;
21607;SDS011;10966;51.076;3.782;2022-07-29T01:46:02;5.18;;;2.60;;
21607;SDS011;10966;51.076;3.782;2022-07-29T01:51:09;6.68;;;2.65;;
21607;SDS011;10966;51.076;3.782;2022-07-29T01:56:44;4.30;;;2.63;;
21607;SDS011;10966;51.076;3.782;2022-07-29T01:59:11;4.00;;;2.60;;
21607;SDS011;10966;51.076;3.782;2022-07-29T02:01:37;4.28;;;2.50;;
21607;SDS011;10966;51.076;3.782;2022-07-29T02:04:06;7.30;;;2.50;;
21607;SDS011;10966;51.076;3.782;2022-07-29T02:06:34;5.25;;;2.60;;
21607;SDS011;10966;51.076;3.782;2022-07-29T02:09:03;5.53;;;2.75;;
21607;SDS011;10966;51.076;3.782;2022-07-29T02:11:31;2.75;;;2.47;;
21607;SDS011;10966;51.076;3.782;2022-07-29T02:13:59;4.93;;;2.60;;
21607;SDS011;10966;51.076;3.782;2022-07-29T02:16:26;4.75;;;2.60;;
21607;SDS011;10966;51.076;3.782;2022-07-29T02:18:55;8.00;;;2.95;;
21607;SDS011;10966;51.076;3.782;2022-07-29T02:21:24;5.43;;;2.78;;
21607;SDS011;10966;51.076;3.782;2022-07-29T02:23:51;5.72;;;2.65;;
21607;SDS011;10966;51.076;3.782;2022-07-29T02:26:19;2.92;;;2.53;;
21607;SDS011;10966;51.076;3.782;2022-07-29T02:28:47;7.03;;;2.58;;
21607;SDS011;10966;51.076;3.782;2022-07-29T02:31:14;5.75;;;2.95;;
21607;SDS011;10966;51.076;3.782;2022-07-29T02:33:43;4.20;;;2.55;;
21607;SDS011;10966;51.076;3.782;2022-07-29T02:36:11;4.93;;;2.53;;
21607;SDS011;10966;51.076;3.782;2022-07-29T02:38:38;4.65;;;2.58;;
21607;SDS011;10966;51.076;3.782;2022-07-29T02:41:19;5.07;;;2.80;;
21607;SDS011;10966;51.076;3.782;2022-07-29T02:43:48;3.65;;;2.90;;
21607;SDS011;10966;51.076;3.782;2022-07-29T02:46:20;4.32;;;3.00;;
21607;SDS011;10966;51.076;3.782;2022-07-29T02:48:58;5.03;;;2.80;;
21607;SDS011;10966;51.076;3.782;2022-07-29T02:51:45;4.47;;;2.70;;
21607;SDS011;10966;51.076;3.782;2022-07-29T02:57:30;5.93;;;2.63;;
21607;SDS011;10966;51.076;3.782;2022-07-29T02:59:53;4.93;;;2.33;;
21607;SDS011;10966;51.076;3.782;2022-07-29T03:02:22;5.97;;;2.90;;
21607;SDS011;10966;51.076;3.782;2022-07-29T03:04:50;4.13;;;2.60;;
21607;SDS011;10966;51.076;3.782;2022-07-29T03:07:18;5.65;;;2.83;;
21607;SDS011;10966;51.076;3.782;2022-07-29T03:09:44;3.67;;;2.67;;
21607;SDS011;10966;51.076;3.782;2022-07-29T03:12:10;5.40;;;2.75;;
21607;SDS011;10966;51.076;3.782;2022-07-29T03:14:37;5.93;;;2.92;;
21607;SDS011;10966;51.076;3.782;2022-07-29T03:17:03;6.35;;;2.83;;
21607;SDS011;10966;51.076;3.782;2022-07-29T03:19:30;8.55;;;2.80;;
21607;SDS011;10966;51.076;3.782;2022-07-29T03:21:57;7.88;;;2.85;;
21607;SDS011;10966;51.076;3.782;2022-07-29T03:24:30;5.80;;;2.60;;
21607;SDS011;10966;51.076;3.782;2022-07-29T03:26:57;4.88;;;3.00;;
21607;SDS011;10966;51.076;3.782;2022-07-29T03:29:23;4.30;;;3.00;;
21607;SDS011;10966;51.076;3.782;2022-07-29T03:31:50;5.53;;;3.05;;
21607;SDS011;10966;51.076;3.782;2022-07-29T03:34:16;5.30;;;3.17;;
21607;SDS011;10966;51.076;3.782;2022-07-29T03:36:42;7.13;;;3.20;;
21607;SDS011;10966;51.076;3.782;2022-07-29T03:39:07;6.05;;;3.40;;
21607;SDS011;10966;51.076;3.782;2022-07-29T03:41:36;5.03;;;2.95;;
21607;SDS011;10966;51.076;3.782;2022-07-29T03:44:03;6.00;;;2.92;;
21607;SDS011;10966;51.076;3.782;2022-07-29T03:46:32;4.35;;;2.70;;
21607;SDS011;10966;51.076;3.782;2022-07-29T03:49:01;6.13;;;3.20;;
21607;SDS011;10966;51.076;3.782;2022-07-29T03:51:29;6.78;;;3.50;;
21607;SDS011;10966;51.076;3.782;2022-07-29T03:53:55;7.50;;;3.28;;
21607;SDS011;10966;51.076;3.782;2022-07-29T03:56:22;5.88;;;3.25;;
21607;SDS011;10966;51.076;3.782;2022-07-29T03:58:49;5.05;;;3.25;;
21607;SDS011;10966;51.076;3.782;2022-07-29T04:01:17;6.13;;;2.90;;
21607;SDS011;10966;51.076;3.782;2022-07-29T04:03:44;7.60;;;3.53;;
21607;SDS011;10966;51.076;3.782;2022-07-29T04:06:11;5.78;;;3.10;;
21607;SDS011;10966;51.076;3.782;2022-07-29T04:08:37;7.57;;;3.30;;
21607;SDS011;10966;51.076;3.782;2022-07-29T04:11:03;4.30;;;3.15;;
21607;SDS011;10966;51.076;3.782;2022-07-29T04:13:31;5.03;;;3.45;;
21607;SDS011;10966;51.076;3.782;2022-07-29T04:15:57;4.43;;;3.15;;
21607;SDS011;10966;51.076;3.782;2022-07-29T04:18:23;5.25;;;3.20;;
21607;SDS011;10966;51.076;3.782;2022-07-29T04:20:49;4.93;;;3.08;;
21607;SDS011;10966;51.076;3.782;2022-07-29T04:23:14;6.68;;;3.45;;
21607;SDS011;10966;51.076;3.782;2022-07-29T04:25:40;5.85;;;3.10;;
21607;SDS011;10966;51.076;3.782;2022-07-29T04:28:07;5.22;;;3.28;;
21607;SDS011;10966;51.076;3.782;2022-07-29T04:30:34;5.25;;;3.25;;
21607;SDS011;10966;51.076;3.782;2022-07-29T04:33:01;7.00;;;3.17;;
21607;SDS011;10966;51.076;3.782;2022-07-29T04:35:29;7.15;;;3.47;;
21607;SDS011;10966;51.076;3.782;2022-07-29T04:37:58;7.80;;;3.42;;
21607;SDS011;10966;51.076;3.782;2022-07-29T04:40:24;5.38;;;3.20;;
21607;SDS011;10966;51.076;3.782;2022-07-29T04:42:49;7.22;;;3.03;;
21607;SDS011;10966;51.076;3.782;2022-07-29T04:45:15;6.22;;;3.20;;
21607;SDS011;10966;51.076;3.782;2022-07-29T04:47:41;5.10;;;3.05;;
21607;SDS011;10966;51.076;3.782;2022-07-29T04:50:07;4.57;;;2.95;;
21607;SDS011;10966;51.076;3.782;2022-07-29T04:52:34;6.38;;;3.17;;
21607;SDS011;10966;51.076;3.782;2022-07-29T04:55:00;5.88;;;3.20;;
21607;SDS011;10966;51.076;3.782;2022-07-29T04:57:26;7.13;;;3.58;;
21607;SDS011;10966;51.076;3.782;2022-07-29T04:59:52;7.43;;;3.25;;
21607;SDS011;10966;51.076;3.782;2022-07-29T05:02:17;4.45;;;2.90;;
21607;SDS011;10966;51.076;3.782;2022-07-29T05:04:43;6.68;;;3.28;;
21607;SDS011;10966;51.076;3.782;2022-07-29T05:07:09;6.63;;;3.25;;
21607;SDS011;10966;51.076;3.782;2022-07-29T05:09:34;7.45;;;3.30;;
21607;SDS011;10966;51.076;3.782;2022-07-29T05:12:00;5.50;;;2.97;;
21607;SDS011;10966;51.076;3.782;2022-07-29T05:14:26;5.63;;;3.05;;
21607;SDS011;10966;51.076;3.782;2022-07-29T05:16:52;6.00;;;3.20;;
21607;SDS011;10966;51.076;3.782;2022-07-29T05:19:21;4.65;;;2.90;;
21607;SDS011;10966;51.076;3.782;2022-07-29T05:21:47;5.28;;;2.90;;
21607;SDS011;10966;51.076;3.782;2022-07-29T05:24:13;6.97;;;3.03;;
21607;SDS011;10966;51.076;3.782;2022-07-29T05:26:38;5.68;;;3.20;;
21607;SDS011;10966;51.076;3.782;2022-07-29T05:29:04;9.95;;;2.80;;
21607;SDS011;10966;51.076;3.782;2022-07-29T05:31:30;6.35;;;3.00;;
21607;SDS011;10966;51.076;3.782;2022-07-29T05:33:56;6.45;;;3.50;;
21607;SDS011;10966;51.076;3.782;2022-07-29T05:36:21;3.97;;;3.00;;
21607;SDS011;10966;51.076;3.782;2022-07-29T05:38:47;4.32;;;3.15;;
21607;SDS011;10966;51.076;3.782;2022-07-29T05:41:13;6.78;;;3.15;;
21607;SDS011;10966;51.076;3.782;2022-07-29T05:43:38;5.88;;;3.35;;
21607;SDS011;10966;51.076;3.782;2022-07-29T05:46:04;10.27;;;3.85;;
21607;SDS011;10966;51.076;3.782;2022-07-29T05:48:30;5.68;;;3.80;;
21607;SDS011;10966;51.076;3.782;2022-07-29T05:50:55;6.75;;;3.40;;
21607;SDS011;10966;51.076;3.782;2022-07-29T05:53:21;8.07;;;3.45;;
21607;SDS011;10966;51.076;3.782;2022-07-29T05:55:47;9.43;;;3.30;;
21607;SDS011;10966;51.076;3.782;2022-07-29T05:58:13;7.65;;;3.10;;
21607;SDS011;10966;51.076;3.782;2022-07-29T06:00:39;5.93;;;3.30;;
21607;SDS011;10966;51.076;3.782;2022-07-29T06:03:05;7.10;;;3.53;;
21607;SDS011;10966;51.076;3.782;2022-07-29T06:05:31;6.07;;;3.53;;
21607;SDS011;10966;51.076;3.782;2022-07-29T06:07:56;4.95;;;3.40;;
21607;SDS011;10966;51.076;3.782;2022-07-29T06:10:22;7.88;;;3.20;;
21607;SDS011;10966;51.076;3.782;2022-07-29T06:12:47;5.90;;;3.40;;
21607;SDS011;10966;51.076;3.782;2022-07-29T06:15:13;6.75;;;3.70;;
21607;SDS011;10966;51.076;3.782;2022-07-29T06:17:40;5.45;;;3.40;;
21607;SDS011;10966;51.076;3.782;2022-07-29T06:20:06;7.40;;;3.25;;
21607;SDS011;10966;51.076;3.782;2022-07-29T06:22:32;6.68;;;3.78;;
21607;SDS011;10966;51.076;3.782;2022-07-29T06:24:57;7.15;;;4.00;;
21607;SDS011;10966;51.076;3.782;2022-07-29T06:27:23;8.82;;;3.85;;
21607;SDS011;10966;51.076;3.782;2022-07-29T06:29:48;9.48;;;3.88;;
21607;SDS011;10966;51.076;3.782;2022-07-29T06:32:14;6.50;;;3.88;;
21607;SDS011;10966;51.076;3.782;2022-07-29T06:34:40;9.82;;;4.18;;
21607;SDS011;10966;51.076;3.782;2022-07-29T06:37:08;6.53;;;4.40;;
21607;SDS011;10966;51.076;3.782;2022-07-29T06:39:35;6.60;;;3.95;;
21607;SDS011;10966;51.076;3.782;2022-07-29T06:42:01;10.85;;;4.30;;
21607;SDS011;10966;51.076;3.782;2022-07-29T06:44:30;7.00;;;3.90;;
21607;SDS011;10966;51.076;3.782;2022-07-29T06:46:58;6.15;;;3.70;;
21607;SDS011;10966;51.076;3.782;2022-07-29T06:49:24;6.68;;;4.00;;
21607;SDS011;10966;51.076;3.782;2022-07-29T06:51:51;7.45;;;3.67;;
21607;SDS011;10966;51.076;3.782;2022-07-29T06:54:17;5.15;;;3.60;;
21607;SDS011;10966;51.076;3.782;2022-07-29T06:56:43;5.57;;;3.83;;
21607;SDS011;10966;51.076;3.782;2022-07-29T06:59:09;8.18;;;4.30;;
21607;SDS011;10966;51.076;3.782;2022-07-29T07:01:36;6.20;;;4.40;;
21607;SDS011;10966;51.076;3.782;2022-07-29T07:04:03;12.40;;;4.55;;
21607;SDS011;10966;51.076;3.782;2022-07-29T07:06:29;9.05;;;4.22;;
21607;SDS011;10966;51.076;3.782;2022-07-29T07:08:54;8.13;;;4.35;;
21607;SDS011;10966;51.076;3.782;2022-07-29T07:11:20;9.60;;;4.78;;
21607;SDS011;10966;51.076;3.782;2022-07-29T07:13:46;8.88;;;5.60;;
21607;SDS011;10966;51.076;3.782;2022-07-29T07:16:11;7.13;;;4.55;;
21607;SDS011;10966;51.076;3.782;2022-07-29T07:18:37;5.80;;;3.92;;
21607;SDS011;10966;51.076;3.782;2022-07-29T07:21:03;9.02;;;4.25;;
21607;SDS011;10966;51.076;3.782;2022-07-29T07:23:29;10.40;;;5.10;;
21607;SDS011;10966;51.076;3.782;2022-07-29T07:25:55;8.02;;;5.10;;
21607;SDS011;10966;51.076;3.782;2022-07-29T07:28:21;33.63;;;19.55;;
21607;SDS011;10966;51.076;3.782;2022-07-29T07:30:46;16.40;;;10.20;;
21607;SDS011;10966;51.076;3.782;2022-07-29T07:33:13;29.52;;;18.33;;
21607;SDS011;10966;51.076;3.782;2022-07-29T07:35:39;27.67;;;16.88;;
21607;SDS011;10966;51.076;3.782;2022-07-29T07:38:05;23.85;;;12.30;;
21607;SDS011;10966;51.076;3.782;2022-07-29T07:40:31;18.67;;;11.95;;
21607;SDS011;10966;51.076;3.782;2022-07-29T07:42:57;20.67;;;11.60;;
21607;SDS011;10966;51.076;3.782;2022-07-29T07:45:22;19.17;;;11.93;;
21607;SDS011;10966;51.076;3.782;2022-07-29T07:47:48;22.88;;;12.80;;
21607;SDS011;10966;51.076;3.782;2022-07-29T07:50:14;21.63;;;13.00;;
21607;SDS011;10966;51.076;3.782;2022-07-29T07:52:53;21.25;;;11.68;;
21607;SDS011;10966;51.076;3.782;2022-07-29T07:55:22;17.85;;;11.15;;
21607;SDS011;10966;51.076;3.782;2022-07-29T07:57:48;22.77;;;10.60;;
21607;SDS011;10966;51.076;3.782;2022-07-29T08:00:14;21.08;;;12.13;;
21607;SDS011;10966;51.076;3.782;2022-07-29T08:02:41;20.30;;;12.02;;
21607;SDS011;10966;51.076;3.782;2022-07-29T08:05:08;16.35;;;10.63;;
21607;SDS011;10966;51.076;3.782;2022-07-29T08:07:34;15.57;;;10.18;;
21607;SDS011;10966;51.076;3.782;2022-07-29T08:10:00;18.77;;;11.10;;
21607;SDS011;10966;51.076;3.782;2022-07-29T08:12:26;18.85;;;10.32;;
21607;SDS011;10966;51.076;3.782;2022-07-29T08:14:52;22.80;;;11.60;;
21607;SDS011;10966;51.076;3.782;2022-07-29T08:17:20;18.40;;;10.32;;
21607;SDS011;10966;51.076;3.782;2022-07-29T08:19:46;22.08;;;10.32;;
21607;SDS011;10966;51.076;3.782;2022-07-29T08:22:13;20.85;;;11.07;;
21607;SDS011;10966;51.076;3.782;2022-07-29T08:24:39;17.55;;;10.30;;
21607;SDS011;10966;51.076;3.782;2022-07-29T08:27:20;16.90;;;9.75;;
21607;SDS011;10966;51.076;3.782;2022-07-29T08:29:47;18.60;;;10.38;;
21607;SDS011;10966;51.076;3.782;2022-07-29T08:32:12;14.48;;;8.43;;
21607;SDS011;10966;51.076;3.782;2022-07-29T08:34:38;9.23;;;6.45;;
21607;SDS011;10966;51.076;3.782;2022-07-29T08:37:04;9.38;;;5.40;;
21607;SDS011;10966;51.076;3.782;2022-07-29T08:39:29;8.68;;;5.03;;
21607;SDS011;10966;51.076;3.782;2022-07-29T08:41:55;12.00;;;5.28;;
21607;SDS011;10966;51.076;3.782;2022-07-29T08:44:21;11.48;;;5.28;;
21607;SDS011;10966;51.076;3.782;2022-07-29T08:46:47;13.48;;;5.70;;
21607;SDS011;10966;51.076;3.782;2022-07-29T08:49:14;14.07;;;7.70;;
21607;SDS011;10966;51.076;3.782;2022-07-29T08:51:40;10.77;;;5.97;;
21607;SDS011;10966;51.076;3.782;2022-07-29T08:54:08;9.98;;;6.60;;
21607;SDS011;10966;51.076;3.782;2022-07-29T08:56:35;10.85;;;7.40;;
21607;SDS011;10966;51.076;3.782;2022-07-29T08:59:03;10.65;;;5.78;;
21607;SDS011;10966;51.076;3.782;2022-07-29T09:01:30;9.23;;;6.35;;
21607;SDS011;10966;51.076;3.782;2022-07-29T09:03:58;12.35;;;5.82;;
21607;SDS011;10966;51.076;3.782;2022-07-29T09:06:26;9.70;;;6.00;;
21607;SDS011;10966;51.076;3.782;2022-07-29T09:08:58;8.25;;;5.00;;
21607;SDS011;10966;51.076;3.782;2022-07-29T09:11:24;6.15;;;4.30;;
21607;SDS011;10966;51.076;3.782;2022-07-29T09:13:50;10.27;;;5.10;;
21607;SDS011;10966;51.076;3.782;2022-07-29T09:16:15;10.25;;;5.55;;
21607;SDS011;10966;51.076;3.782;2022-07-29T09:18:42;5.97;;;4.45;;
21607;SDS011;10966;51.076;3.782;2022-07-29T09:21:10;7.95;;;4.95;;
21607;SDS011;10966;51.076;3.782;2022-07-29T09:26:35;6.25;;;3.95;;
21607;SDS011;10966;51.076;3.782;2022-07-29T09:29:13;8.80;;;4.00;;
21607;SDS011;10966;51.076;3.782;2022-07-29T09:31:43;7.32;;;3.83;;
21607;SDS011;10966;51.076;3.782;2022-07-29T09:34:14;9.13;;;3.97;;
21607;SDS011;10966;51.076;3.782;2022-07-29T09:36:45;9.80;;;4.20;;
21607;SDS011;10966;51.076;3.782;2022-07-29T09:39:12;12.95;;;6.35;;
21607;SDS011;10966;51.076;3.782;2022-07-29T09:42:12;12.75;;;6.25;;
21607;SDS011;10966;51.076;3.782;2022-07-29T09:44:41;9.02;;;5.63;;
21607;SDS011;10966;51.076;3.782;2022-07-29T09:47:07;11.13;;;6.53;;
21607;SDS011;10966;51.076;3.782;2022-07-29T09:49:34;22.00;;;9.65;;
21607;SDS011;10966;51.076;3.782;2022-07-29T09:52:05;14.73;;;8.35;;
21607;SDS011;10966;51.076;3.782;2022-07-29T09:54:32;12.27;;;7.00;;
21607;SDS011;10966;51.076;3.782;2022-07-29T09:57:05;15.20;;;6.70;;
21607;SDS011;10966;51.076;3.782;2022-07-29T09:59:32;13.10;;;7.78;;
21607;SDS011;10966;51.076;3.782;2022-07-29T10:01:58;17.08;;;8.60;;
21607;SDS011;10966;51.076;3.782;2022-07-29T10:04:26;14.82;;;6.95;;
21607;SDS011;10966;51.076;3.782;2022-07-29T10:07:05;14.55;;;7.57;;
21607;SDS011;10966;51.076;3.782;2022-07-29T10:09:32;11.98;;;6.18;;
21607;SDS011;10966;51.076;3.782;2022-07-29T10:14:30;11.93;;;6.45;;
21607;SDS011;10966;51.076;3.782;2022-07-29T10:16:59;11.02;;;4.25;;
21607;SDS011;10966;51.076;3.782;2022-07-29T10:19:26;7.13;;;3.38;;
21607;SDS011;10966;51.076;3.782;2022-07-29T10:21:57;11.00;;;4.47;;
21607;SDS011;10966;51.076;3.782;2022-07-29T10:24:27;9.57;;;5.18;;
21607;SDS011;10966;51.076;3.782;2022-07-29T10:26:54;11.65;;;5.70;;
21607;SDS011;10966;51.076;3.782;2022-07-29T10:29:21;9.75;;;5.30;;
21607;SDS011;10966;51.076;3.782;2022-07-29T10:32:07;10.07;;;5.28;;
21607;SDS011;10966;51.076;3.782;2022-07-29T10:43:29;7.18;;;3.63;;
21607;SDS011;10966;51.076;3.782;2022-07-29T10:46:01;7.28;;;3.95;;
21607;SDS011;10966;51.076;3.782;2022-07-29T10:48:27;9.90;;;3.90;;
21607;SDS011;10966;51.076;3.782;2022-07-29T10:50:55;7.18;;;3.20;;
21607;SDS011;10966;51.076;3.782;2022-07-29T10:53:21;8.05;;;4.50;;
21607;SDS011;10966;51.076;3.782;2022-07-29T10:55:48;8.05;;;3.50;;
21607;SDS011;10966;51.076;3.782;2022-07-29T10:58:22;8.15;;;4.38;;
21607;SDS011;10966;51.076;3.782;2022-07-29T11:00:49;5.63;;;3.63;;
21607;SDS011;10966;51.076;3.782;2022-07-29T11:03:58;7.90;;;3.28;;
21607;SDS011;10966;51.076;3.782;2022-07-29T11:06:05;10.55;;;3.53;;
21607;SDS011;10966;51.076;3.782;2022-07-29T11:08:31;8.02;;;3.10;;
21607;SDS011;10966;51.076;3.782;2022-07-29T11:13:55;10.73;;;4.60;;
21607;SDS011;10966;51.076;3.782;2022-07-29T11:16:21;8.50;;;3.70;;
21607;SDS011;10966;51.076;3.782;2022-07-29T11:21:36;6.70;;;3.13;;
21607;SDS011;10966;51.076;3.782;2022-07-29T11:24:13;9.40;;;4.03;;
21607;SDS011;10966;51.076;3.782;2022-07-29T11:26:43;7.85;;;3.22;;
21607;SDS011;10966;51.076;3.782;2022-07-29T11:29:19;9.85;;;3.53;;
21607;SDS011;10966;51.076;3.782;2022-07-29T11:31:49;6.03;;;2.90;;
21607;SDS011;10966;51.076;3.782;2022-07-29T11:34:32;5.03;;;2.20;;
21607;SDS011;10966;51.076;3.782;2022-07-29T11:39:33;5.00;;;1.90;;
21607;SDS011;10966;51.076;3.782;2022-07-29T11:42:42;5.03;;;2.38;;
21607;SDS011;10966;51.076;3.782;2022-07-29T11:50:02;5.70;;;2.58;;
21607;SDS011;10966;51.076;3.782;2022-07-29T11:52:34;5.38;;;2.53;;
21607;SDS011;10966;51.076;3.782;2022-07-29T11:55:03;6.00;;;2.50;;
21607;SDS011;10966;51.076;3.782;2022-07-29T11:57:31;4.60;;;2.22;;
21607;SDS011;10966;51.076;3.782;2022-07-29T11:59:59;4.97;;;2.67;;
21607;SDS011;10966;51.076;3.782;2022-07-29T12:02:25;8.35;;;2.63;;
21607;SDS011;10966;51.076;3.782;2022-07-29T12:05:07;6.13;;;3.50;;
21607;SDS011;10966;51.076;3.782;2022-07-29T12:07:34;7.85;;;3.50;;
21607;SDS011;10966;51.076;3.782;2022-07-29T12:09:59;7.60;;;2.90;;
21607;SDS011;10966;51.076;3.782;2022-07-29T12:12:25;6.80;;;2.97;;
21607;SDS011;10966;51.076;3.782;2022-07-29T12:14:51;7.00;;;3.60;;
21607;SDS011;10966;51.076;3.782;2022-07-29T12:17:27;5.43;;;2.70;;
21607;SDS011;10966;51.076;3.782;2022-07-29T12:19:55;5.30;;;3.20;;
21607;SDS011;10966;51.076;3.782;2022-07-29T12:22:28;5.25;;;2.60;;
21607;SDS011;10966;51.076;3.782;2022-07-29T12:25:00;5.30;;;2.63;;
21607;SDS011;10966;51.076;3.782;2022-07-29T12:27:29;18.77;;;3.42;;
21607;SDS011;10966;51.076;3.782;2022-07-29T12:29:59;7.15;;;3.40;;
21607;SDS011;10966;51.076;3.782;2022-07-29T12:32:31;5.97;;;2.53;;
21607;SDS011;10966;51.076;3.782;2022-07-29T12:35:02;6.25;;;2.70;;
21607;SDS011;10966;51.076;3.782;2022-07-29T12:37:36;5.68;;;2.85;;
21607;SDS011;10966;51.076;3.782;2022-07-29T12:40:04;7.63;;;3.00;;
21607;SDS011;10966;51.076;3.782;2022-07-29T12:42:31;25.40;;;16.67;;
21607;SDS011;10966;51.076;3.782;2022-07-29T12:44:57;5.97;;;3.15;;
21607;SDS011;10966;51.076;3.782;2022-07-29T12:47:23;7.85;;;3.17;;
21607;SDS011;10966;51.076;3.782;2022-07-29T12:49:49;6.18;;;2.75;;
21607;SDS011;10966;51.076;3.782;2022-07-29T12:52:34;5.90;;;2.47;;
21607;SDS011;10966;51.076;3.782;2022-07-29T12:55:00;10.15;;;2.60;;
21607;SDS011;10966;51.076;3.782;2022-07-29T12:57:26;7.75;;;2.75;;
21607;SDS011;10966;51.076;3.782;2022-07-29T13:02:36;4.15;;;3.00;;
21607;SDS011;10966;51.076;3.782;2022-07-29T13:05:02;5.30;;;2.55;;
21607;SDS011;10966;51.076;3.782;2022-07-29T13:07:30;8.70;;;3.35;;
21607;SDS011;10966;51.076;3.782;2022-07-29T13:10:19;7.40;;;2.88;;
21607;SDS011;10966;51.076;3.782;2022-07-29T13:15:30;4.18;;;2.30;;
21607;SDS011;10966;51.076;3.782;2022-07-29T13:17:56;5.88;;;2.85;;
21607;SDS011;10966;51.076;3.782;2022-07-29T13:20:26;5.30;;;2.40;;
21607;SDS011;10966;51.076;3.782;2022-07-29T13:22:59;6.60;;;3.20;;
21607;SDS011;10966;51.076;3.782;2022-07-29T13:25:29;7.55;;;2.72;;
21607;SDS011;10966;51.076;3.782;2022-07-29T13:27:56;5.93;;;2.90;;
21607;SDS011;10966;51.076;3.782;2022-07-29T13:30:23;4.88;;;2.88;;
21607;SDS011;10966;51.076;3.782;2022-07-29T13:32:50;4.78;;;2.65;;
21607;SDS011;10966;51.076;3.782;2022-07-29T13:35:17;6.00;;;2.80;;
21607;SDS011;10966;51.076;3.782;2022-07-29T13:37:45;9.55;;;2.72;;
21607;SDS011;10966;51.076;3.782;2022-07-29T13:40:11;5.00;;;2.60;;
21607;SDS011;10966;51.076;3.782;2022-07-29T13:42:37;6.97;;;3.38;;
21607;SDS011;10966;51.076;3.782;2022-07-29T13:45:03;7.97;;;3.33;;
21607;SDS011;10966;51.076;3.782;2022-07-29T13:47:31;7.20;;;2.95;;
21607;SDS011;10966;51.076;3.782;2022-07-29T13:49:57;5.85;;;2.72;;
21607;SDS011;10966;51.076;3.782;2022-07-29T13:52:22;7.13;;;3.35;;
21607;SDS011;10966;51.076;3.782;2022-07-29T13:54:48;5.65;;;2.97;;
21607;SDS011;10966;51.076;3.782;2022-07-29T13:57:14;4.28;;;2.70;;
21607;SDS011;10966;51.076;3.782;2022-07-29T13:59:40;4.03;;;2.50;;
21607;SDS011;10966;51.076;3.782;2022-07-29T14:02:07;4.88;;;2.47;;
21607;SDS011;10966;51.076;3.782;2022-07-29T14:04:33;5.18;;;2.40;;
21607;SDS011;10966;51.076;3.782;2022-07-29T14:06:59;5.32;;;2.50;;
21607;SDS011;10966;51.076;3.782;2022-07-29T14:09:25;5.82;;;2.30;;
21607;SDS011;10966;51.076;3.782;2022-07-29T14:11:51;5.15;;;2.25;;
21607;SDS011;10966;51.076;3.782;2022-07-29T14:14:17;5.82;;;2.60;;
21607;SDS011;10966;51.076;3.782;2022-07-29T14:16:43;4.72;;;2.35;;
21607;SDS011;10966;51.076;3.782;2022-07-29T14:19:09;9.25;;;2.45;;
21607;SDS011;10966;51.076;3.782;2022-07-29T14:21:36;4.63;;;2.30;;
21607;SDS011;10966;51.076;3.782;2022-07-29T14:24:02;5.13;;;2.58;;
21607;SDS011;10966;51.076;3.782;2022-07-29T14:26:28;3.67;;;2.33;;
21607;SDS011;10966;51.076;3.782;2022-07-29T14:28:54;4.82;;;1.80;;
21607;SDS011;10966;51.076;3.782;2022-07-29T14:31:19;3.75;;;1.85;;
21607;SDS011;10966;51.076;3.782;2022-07-29T14:33:45;5.28;;;2.17;;
21607;SDS011;10966;51.076;3.782;2022-07-29T14:36:11;4.68;;;1.90;;
21607;SDS011;10966;51.076;3.782;2022-07-29T14:38:37;4.55;;;2.15;;
21607;SDS011;10966;51.076;3.782;2022-07-29T14:41:03;3.60;;;2.00;;
21607;SDS011;10966;51.076;3.782;2022-07-29T14:43:29;6.05;;;2.13;;
21607;SDS011;10966;51.076;3.782;2022-07-29T14:45:55;3.95;;;2.00;;
21607;SDS011;10966;51.076;3.782;2022-07-29T14:48:21;4.80;;;1.98;;
21607;SDS011;10966;51.076;3.782;2022-07-29T14:50:47;5.90;;;2.20;;
21607;SDS011;10966;51.076;3.782;2022-07-29T14:53:12;4.28;;;2.38;;
21607;SDS011;10966;51.076;3.782;2022-07-29T14:55:39;3.50;;;2.08;;
21607;SDS011;10966;51.076;3.782;2022-07-29T14:58:06;4.45;;;1.90;;
21607;SDS011;10966;51.076;3.782;2022-07-29T15:00:32;3.80;;;2.10;;
21607;SDS011;10966;51.076;3.782;2022-07-29T15:03:01;4.22;;;2.00;;
21607;SDS011;10966;51.076;3.782;2022-07-29T15:05:26;4.32;;;2.15;;
21607;SDS011;10966;51.076;3.782;2022-07-29T15:07:55;5.82;;;2.17;;
21607;SDS011;10966;51.076;3.782;2022-07-29T15:10:21;4.88;;;1.80;;
21607;SDS011;10966;51.076;3.782;2022-07-29T15:12:47;5.28;;;2.00;;
21607;SDS011;10966;51.076;3.782;2022-07-29T15:15:12;7.43;;;2.17;;
21607;SDS011;10966;51.076;3.782;2022-07-29T15:17:38;3.85;;;2.00;;
21607;SDS011;10966;51.076;3.782;2022-07-29T15:20:04;3.75;;;2.00;;
21607;SDS011;10966;51.076;3.782;2022-07-29T15:22:30;5.53;;;1.73;;
21607;SDS011;10966;51.076;3.782;2022-07-29T15:24:56;4.43;;;2.05;;
21607;SDS011;10966;51.076;3.782;2022-07-29T15:27:22;3.97;;;1.83;;
21607;SDS011;10966;51.076;3.782;2022-07-29T15:29:47;7.22;;;1.88;;
21607;SDS011;10966;51.076;3.782;2022-07-29T15:32:13;4.15;;;1.95;;
21607;SDS011;10966;51.076;3.782;2022-07-29T15:34:39;5.07;;;1.98;;
21607;SDS011;10966;51.076;3.782;2022-07-29T15:37:05;3.92;;;2.30;;
21607;SDS011;10966;51.076;3.782;2022-07-29T15:39:30;5.28;;;2.17;;
21607;SDS011;10966;51.076;3.782;2022-07-29T15:41:56;7.75;;;2.42;;